Time;durP1;ratioP1;P1;durP2;ratioP2;P2;SDS_P1;SDS_P2;PMS_P1;PMS_P2;Temp;Humidity;BMP_temperature;BMP_pressure;BME280_temperature;BME280_humidity;BME280_pressure;Samples;Min_cycle;Max_cycle;Signal;HPM_P1;HPM_P2
2022/02/26 00:00:28;;;;;;;25.67;6.82;;;;;;;1.36;100.00;66929.81;5036516;28;20049;-88
2022/02/26 00:02:53;;;;;;;17.42;6.20;;;;;;;1.32;100.00;66927.91;5074654;28;20049;-88
2022/02/26 00:05:19;;;;;;;25.52;6.95;;;;;;;1.35;100.00;66931.88;5042800;28;20056;-90
2022/02/26 00:07:44;;;;;;;26.80;6.22;;;;;;;1.29;100.00;66921.94;5042084;28;20052;-90
2022/02/26 00:10:10;;;;;;;28.58;6.40;;;;;;;1.35;100.00;66929.25;5041849;28;20037;-89
2022/02/26 00:12:35;;;;;;;21.92;5.43;;;;;;;1.33;100.00;66936.94;5039867;28;20108;-88
2022/02/26 00:15:01;;;;;;;23.35;6.18;;;;;;;1.12;100.00;66903.94;5029327;28;20057;-86
2022/02/26 00:17:26;;;;;;;15.70;5.07;;;;;;;1.02;100.00;66892.09;5068437;28;20037;-87
2022/02/26 00:19:52;;;;;;;23.77;5.85;;;;;;;1.08;100.00;66899.41;5042556;28;20029;-90
2022/02/26 00:22:17;;;;;;;22.90;5.60;;;;;;;0.89;100.00;66878.03;5067931;28;20042;-88
2022/02/26 00:24:43;;;;;;;17.23;5.22;;;;;;;0.82;100.00;66873.34;5069791;28;20529;-87
2022/02/26 00:27:08;;;;;;;23.52;7.22;;;;;;;0.88;100.00;66877.47;5038985;28;20037;-88
2022/02/26 00:29:34;;;;;;;24.95;6.68;;;;;;;0.90;100.00;66882.34;5050848;28;20045;-87
2022/02/26 00:32:01;;;;;;;21.17;5.82;;;;;;;0.77;100.00;66867.16;5050746;28;20112;-89
2022/02/26 00:34:27;;;;;;;16.35;6.32;;;;;;;0.72;100.00;66861.53;5056772;28;20045;-89
2022/02/26 00:36:53;;;;;;;23.85;7.43;;;;;;;0.78;100.00;66865.66;5053922;28;20140;-86
2022/02/26 00:39:19;;;;;;;25.85;7.50;;;;;;;0.86;100.00;66879.91;5051740;28;20048;-87
2022/02/26 00:41:44;;;;;;;29.80;8.07;;;;;;;0.86;100.00;66875.22;5046095;28;20050;-87
2022/02/26 00:44:09;;;;;;;30.17;8.43;;;;;;;;;;5046383;28;20053;-87
2022/02/26 00:46:35;;;;;;;23.05;7.75;;;;;;;;;;5057559;28;20036;-88
2022/02/26 00:51:44;;;;;;;27.52;8.80;;;;;;;1.03;100.00;66899.03;5042333;28;20059;-89
2022/02/26 00:54:09;;;;;;;22.10;9.63;;;;;;;1.11;100.00;66902.22;5039186;28;20405;-91
2022/02/26 00:56:35;;;;;;;24.02;8.65;;;;;;;1.02;100.00;66894.72;5046547;28;20066;-87
2022/02/26 00:59:00;;;;;;;30.92;9.68;;;;;;;1.01;100.00;66896.78;5052827;28;20045;-89
2022/02/26 01:01:26;;;;;;;29.05;11.32;;;;;;;1.02;100.00;66892.66;5054494;28;20044;-86
2022/02/26 01:03:52;;;;;;;26.25;11.55;;;;;;;1.03;100.00;66893.22;5047564;28;20044;-89
2022/02/26 01:06:17;;;;;;;30.45;11.25;;;;;;;0.95;100.00;66892.66;5049559;28;20034;-89
2022/02/26 01:08:43;;;;;;;29.17;10.40;;;;;;;0.86;100.00;66882.50;5065550;28;20485;-87
2022/02/26 01:11:08;;;;;;;25.92;9.25;;;;;;;0.93;100.00;66885.16;5052436;28;20474;-86
2022/02/26 01:13:34;;;;;;;22.88;9.07;;;;;;;1.00;100.00;66889.84;5056652;28;20076;-87
2022/02/26 01:15:59;;;;;;;32.92;7.88;;;;;;;1.08;100.00;66902.03;5041605;28;20352;-87
2022/02/26 01:18:25;;;;;;;22.35;6.75;;;;;;;1.14;100.00;66908.22;5052806;28;20092;-88
2022/02/26 01:20:50;;;;;;;26.80;7.55;;;;;;;1.12;100.00;66903.94;5056738;28;20038;-87
2022/02/26 01:23:16;;;;;;;21.25;5.85;;;;;;;1.24;100.00;66916.88;5043357;28;20037;-87
2022/02/26 01:25:41;;;;;;;24.08;6.75;;;;;;;;;;5042633;28;20037;-90
2022/02/26 01:28:06;;;;;;;27.10;7.68;;;;;;;1.44;100.00;66944.06;5060054;28;20513;-86
2022/02/26 01:30:32;;;;;;;25.92;6.18;;;;;;;1.43;100.00;66942.94;5081210;28;20052;-87
2022/02/26 01:32:58;;;;;;;23.50;6.57;;;;;;;1.48;100.00;66938.06;5050832;28;20032;-85
2022/02/26 01:35:23;;;;;;;30.63;6.85;;;;;;;1.51;100.00;66949.31;5049604;28;20490;-89
2022/02/26 01:37:48;;;;;;;24.30;6.45;;;;;;;;;;5043680;28;20049;-87
2022/02/26 01:40:14;;;;;;;27.60;6.53;;;;;;;1.39;100.00;66935.81;5051504;28;20041;-88
2022/02/26 01:42:40;;;;;;;23.40;6.70;;;;;;;1.22;100.00;66916.69;5046255;28;20041;-87
2022/02/26 01:45:17;;;;;;;25.80;6.13;;;;;;;1.32;100.00;66930.53;5054898;28;20460;-85
2022/02/26 01:47:44;;;;;;;27.50;6.57;;;;;;;1.20;100.00;66912.34;5048123;28;20041;-87
2022/02/26 01:50:11;;;;;;;25.45;6.13;;;;;;;1.25;100.00;66918.00;5047379;28;20095;-88
2022/02/26 01:52:37;;;;;;;29.00;6.30;;;;;;;;;;5053178;28;20047;-87
2022/02/26 01:55:03;;;;;;;20.92;5.95;;;;;;;1.21;100.00;66912.91;5050540;28;20124;-87
2022/02/26 01:57:29;;;;;;;22.63;4.90;;;;;;;0.99;100.00;66888.72;5032375;28;20099;-86
2022/02/26 01:59:54;;;;;;;27.02;5.60;;;;;;;1.03;100.00;66899.03;5081497;28;20041;-89
2022/02/26 02:02:20;;;;;;;25.38;6.57;;;;;;;1.03;100.00;66893.78;5048783;28;20052;-86
2022/02/26 02:04:46;;;;;;;28.33;5.43;;;;;;;0.88;100.00;66882.16;5049844;28;20425;-85
2022/02/26 02:07:13;;;;;;;27.30;7.40;;;;;;;0.87;100.00;66876.34;5049626;28;20052;-86
2022/02/26 02:09:40;;;;;;;19.35;4.53;;;;;;;0.78;100.00;66865.66;5047394;28;20114;-89
2022/02/26 02:12:15;;;;;;;25.08;5.53;;;;;;;0.62;100.00;66848.22;5051628;28;20044;-87
2022/02/26 02:14:44;;;;;;;20.73;4.97;;;;;;;0.48;100.00;66835.66;5088073;28;20041;-86
2022/02/26 02:17:10;;;;;;;17.13;4.10;;;;;;;0.47;100.00;66836.59;5049383;28;20042;-85
2022/02/26 02:19:39;;;;;;;28.02;5.55;;;;;;;0.50;100.00;66834.72;5057331;28;20099;-89
2022/02/26 02:22:10;;;;;;;23.45;5.68;;;;;;;0.52;100.00;66840.16;5032459;28;20486;-88
2022/02/26 02:24:35;;;;;;;25.30;6.57;;;;;;;0.68;100.00;66854.97;5043719;28;20047;-89
2022/02/26 02:27:03;;;;;;;23.02;5.43;;;;;;;0.60;100.00;66845.97;5018293;28;20048;-87
2022/02/26 02:29:31;;;;;;;16.75;5.35;;;;;;;0.48;100.00;66835.66;5037388;28;20033;-86
2022/02/26 02:31:57;;;;;;;23.00;6.30;;;;;;;0.48;100.00;66837.72;5041902;28;20053;-89
2022/02/26 02:34:24;;;;;;;22.55;6.20;;;;;;;0.44;100.00;66836.94;5049658;28;20409;-86
2022/02/26 02:36:49;;;;;;;19.45;5.90;;;;;;;0.39;100.00;66825.53;5040472;28;20151;-88
2022/02/26 02:39:15;;;;;;;22.17;6.15;;;;;;;0.33;100.00;66818.78;5030540;28;20124;-88
2022/02/26 02:41:42;;;;;;;19.33;5.95;;;;;;;0.20;100.00;66807.91;5039366;28;20128;-87
2022/02/26 02:44:10;;;;;;;33.40;9.23;;;;;;;0.39;100.00;66828.16;5050567;28;20045;-88
2022/02/26 02:46:35;;;;;;;27.10;9.10;;;;;;;0.43;100.00;66827.97;5048419;28;20052;-88
2022/02/26 02:49:01;;;;;;;28.90;8.23;;;;;;;0.34;100.00;66817.28;5059657;28;20099;-89
2022/02/26 02:51:26;;;;;;;31.88;9.55;;;;;;;0.36;100.00;66825.34;5034478;28;20053;-88
2022/02/26 02:53:52;;;;;;;28.90;8.18;;;;;;;0.16;100.00;66798.16;5048485;28;20046;-88
2022/02/26 02:56:18;;;;;;;26.80;8.07;;;;;;;0.04;100.00;66787.28;5052933;28;20495;-88
2022/02/26 02:58:43;;;;;;;32.42;8.00;;;;;;;0.04;100.00;66787.28;5034660;28;20112;-87
2022/02/26 03:01:09;;;;;;;22.35;7.00;;;;;;;0.03;100.00;66782.97;5051051;28;20173;-88
2022/02/26 03:03:37;;;;;;;20.92;5.50;;;;;;;0.02;100.00;66785.03;5040590;28;20072;-89
2022/02/26 03:06:03;;;;;;;28.33;7.75;;;;;;;0.11;100.00;66797.22;5042876;28;20135;-87
2022/02/26 03:08:31;;;;;;;29.45;8.07;;;;;;;0.12;100.00;66793.13;5071076;28;20124;-87
2022/02/26 03:10:59;;;;;;;23.27;6.85;;;;;;;-0.07;100.00;66772.31;5053206;28;20409;-87
2022/02/26 03:13:27;;;;;;;17.30;6.57;;;;;;;-0.18;100.00;66759.94;5037750;28;20401;-88
2022/02/26 03:15:54;;;;;;;21.92;7.47;;;;;;;-0.21;100.00;66757.13;5030512;28;20524;-87
2022/02/26 03:18:21;;;;;;;28.83;8.25;;;;;;;-0.15;100.00;66763.88;5006960;28;20052;-87
2022/02/26 03:20:47;;;;;;;24.55;8.05;;;;;;;-0.09;100.00;66770.63;5056513;28;20110;-87
2022/02/26 03:23:13;;;;;;;24.58;8.35;;;;;;;-0.16;100.00;66765.38;5047695;28;20086;-87
2022/02/26 03:25:39;;;;;;;29.35;8.70;;;;;;;-0.30;100.00;66747.56;5055848;28;20057;-88
2022/02/26 03:28:06;;;;;;;27.55;7.95;;;;;;;-0.38;100.00;66738.03;5032706;28;20042;-87
2022/02/26 03:30:32;;;;;;;33.40;9.85;;;;;;;-0.28;100.00;66749.81;5047310;28;20494;-87
2022/02/26 03:32:58;;;;;;;28.98;8.95;;;;;;;-0.33;100.00;66746.81;5035588;28;20041;-87
2022/02/26 03:35:25;;;;;;;32.60;10.05;;;;;;;-0.25;100.00;66755.81;5032956;28;20107;-88
2022/02/26 03:37:51;;;;;;;25.65;10.32;;;;;;;-0.10;100.00;66769.50;5050485;28;20052;-87
2022/02/26 03:40:17;;;;;;;21.13;8.75;;;;;;;;;;5046757;28;20049;-87
2022/02/26 03:42:43;;;;;;;29.02;9.45;;;;;;;-0.18;100.00;66762.56;5073911;28;20482;-86
2022/02/26 03:45:11;;;;;;;24.23;9.70;;;;;;;-0.22;100.00;66758.06;5012697;28;20040;-88
2022/02/26 03:47:38;;;;;;;29.02;9.18;;;;;;;-0.37;100.00;66742.34;5057783;28;20064;-88
2022/02/26 03:50:05;;;;;;;31.42;10.57;;;;;;;-0.23;100.00;66754.91;5058095;28;20063;-87
2022/02/26 03:52:30;;;;;;;24.50;8.88;;;;;;;-0.20;100.00;66757.69;5060352;28;20136;-87
2022/02/26 03:54:55;;;;;;;29.23;8.82;;;;;;;;;;5056697;28;20136;-88
2022/02/26 03:57:22;;;;;;;25.55;10.38;;;;;;;-0.19;100.00;66759.38;5034524;28;20037;-87
2022/02/26 03:59:48;;;;;;;30.52;10.00;;;;;;;-0.21;100.00;66761.81;5045057;28;20048;-88
2022/02/26 04:02:13;;;;;;;27.17;9.50;;;;;;;;;;5030292;28;20045;-87
2022/02/26 04:04:40;;;;;;;27.00;10.32;;;;;;;-0.27;100.00;66753.56;5065287;28;20038;-87
2022/02/26 04:07:06;;;;;;;27.33;9.88;;;;;;;-0.29;100.00;66748.13;5021040;28;20090;-89
2022/02/26 04:09:33;;;;;;;24.27;8.82;;;;;;;-0.37;100.00;66739.72;5037922;28;20095;-87
2022/02/26 04:11:58;;;;;;;26.65;8.48;;;;;;;-0.46;100.00;66734.84;5046266;28;20417;-87
2022/02/26 04:14:24;;;;;;;26.35;10.52;;;;;;;-0.35;100.00;66746.63;5049452;28;20049;-88
2022/02/26 04:16:50;;;;;;;20.27;8.30;;;;;;;-0.43;100.00;66738.19;5052244;28;20053;-87
2022/02/26 04:19:16;;;;;;;27.60;8.52;;;;;;;-0.42;100.00;66739.31;5038034;28;20037;-88
2022/02/26 04:21:41;;;;;;;25.40;9.82;;;;;;;-0.38;100.00;66743.81;5036805;28;20052;-87
2022/02/26 04:24:07;;;;;;;24.02;9.68;;;;;;;-0.31;100.00;66751.13;5031718;28;20045;-87
2022/02/26 04:26:33;;;;;;;20.08;8.10;;;;;;;-0.32;100.00;66744.75;5028360;28;20456;-88
2022/02/26 04:29:00;;;;;;;31.17;9.35;;;;;;;-0.26;100.00;66752.09;5030623;28;20052;-88
2022/02/26 04:31:25;;;;;;;28.02;10.35;;;;;;;;;;5037937;28;20175;-87
2022/02/26 04:33:51;;;;;;;19.75;7.13;;;;;;;-0.43;100.00;66737.63;5033271;28;20144;-88
2022/02/26 04:36:18;;;;;;;28.67;8.25;;;;;;;-0.49;100.00;66726.22;5039786;28;20046;-87
2022/02/26 04:38:44;;;;;;;21.92;7.45;;;;;;;-0.32;100.00;66747.38;5037134;28;20081;-87
2022/02/26 04:41:11;;;;;;;33.63;11.13;;;;;;;-0.05;100.00;66777.75;5037234;28;20061;-88
2022/02/26 04:43:40;;;;;;;35.03;12.35;;;;;;;0.12;100.00;66795.75;5041289;28;20052;-88
2022/02/26 04:46:06;;;;;;;30.25;10.13;;;;;;;0.12;100.00;66793.13;5043683;28;20434;-87
2022/02/26 04:48:32;;;;;;;29.10;10.45;;;;;;;0.15;100.00;66797.06;5047350;28;20076;-88
2022/02/26 04:50:58;;;;;;;26.73;9.05;;;;;;;0.03;100.00;66785.59;5049328;28;20366;-88
2022/02/26 04:53:24;;;;;;;33.53;10.45;;;;;;;-0.03;100.00;66771.56;5034110;28;20037;-87
2022/02/26 04:55:50;;;;;;;34.28;10.48;;;;;;;-0.07;100.00;66775.47;5042818;28;20550;-87
2022/02/26 04:58:18;;;;;;;34.22;10.63;;;;;;;-0.09;100.00;66775.28;5036803;28;20238;-87
2022/02/26 05:00:43;;;;;;;37.17;10.63;;;;;;;-0.11;100.00;66767.81;5033253;28;20465;-87
2022/02/26 05:03:09;;;;;;;31.15;13.27;;;;;;;0.13;100.00;66800.03;5055250;28;20136;-87
2022/02/26 05:05:35;;;;;;;36.80;14.20;;;;;;;0.23;100.00;66810.69;5034318;28;20516;-87
2022/02/26 05:08:01;;;;;;;31.13;10.45;;;;;;;0.22;100.00;66807.53;5030436;28;20063;-87
2022/02/26 05:10:26;;;;;;;27.02;10.07;;;;;;;0.27;100.00;66809.97;5069124;28;20386;-87
2022/02/26 05:12:51;;;;;;;40.67;15.90;;;;;;;;;;5037119;28;20102;-88
2022/02/26 05:15:17;;;;;;;32.88;12.35;;;;;;;0.36;100.00;66822.16;5017330;28;20056;-88
2022/02/26 05:17:44;;;;;;;29.77;12.98;;;;;;;0.37;100.00;66825.91;5039451;28;20036;-87
2022/02/26 05:20:09;;;;;;;45.10;15.55;;;;;;;;;;5042746;28;20442;-87
2022/02/26 05:22:35;;;;;;;40.85;16.67;;;;;;;0.47;100.00;66831.91;5046410;28;20128;-87
2022/02/26 05:25:06;;;;;;;39.22;14.55;;;;;;;0.48;100.00;66835.09;5024401;28;20397;-87
2022/02/26 05:27:31;;;;;;;40.65;16.52;;;;;;;0.53;100.00;66843.34;5046035;28;20037;-88
2022/02/26 05:29:56;;;;;;;43.33;19.27;;;;;;;;;;5046607;28;20095;-86
2022/02/26 05:32:22;;;;;;;39.45;18.08;;;;;;;0.55;100.00;66846.16;5051378;28;20029;-86
2022/02/26 05:34:51;;;;;;;48.38;16.58;;;;;;;0.49;100.00;66836.78;5029140;28;20517;-87
2022/02/26 05:37:16;;;;;;;48.88;21.10;;;;;;;0.56;100.00;66847.28;5044173;28;20036;-87
2022/02/26 05:39:42;;;;;;;41.15;20.35;;;;;;;0.55;100.00;66840.34;5046710;28;20102;-87
2022/02/26 05:42:07;;;;;;;56.40;23.50;;;;;;;0.52;100.00;66842.78;5034897;28;20037;-87
2022/02/26 05:44:33;;;;;;;47.22;16.52;;;;;;;0.49;100.00;66839.41;5019147;28;20045;-87
2022/02/26 05:46:58;;;;;;;53.75;23.25;;;;;;;0.48;100.00;66838.28;5056260;28;20049;-86
2022/02/26 05:49:24;;;;;;;60.70;26.20;;;;;;;0.51;100.00;66835.84;5049491;28;20048;-88
2022/02/26 05:51:49;;;;;;;61.78;28.75;;;;;;;0.49;100.00;66833.59;5045193;28;20064;-87
2022/02/26 05:54:15;;;;;;;54.42;23.17;;;;;;;0.49;100.00;66836.22;5034735;28;20046;-85
2022/02/26 05:56:40;;;;;;;60.90;26.25;;;;;;;0.45;100.00;66832.84;5040293;28;20045;-87
2022/02/26 05:59:06;;;;;;;78.22;34.05;;;;;;;0.55;100.00;66846.16;5036468;28;20122;-87
2022/02/26 06:01:31;;;;;;;83.43;36.92;;;;;;;0.58;100.00;66846.91;5039614;28;20132;-86
2022/02/26 06:03:56;;;;;;;92.80;42.53;;;;;;;0.58;100.00;66849.53;5049518;28;20048;-87
2022/02/26 06:06:22;;;;;;;77.65;31.33;;;;;;;0.50;100.00;66835.28;5057234;28;20048;-86
2022/02/26 06:08:47;;;;;;;87.25;33.33;;;;;;;0.45;100.00;66829.66;5049110;28;20049;-87
2022/02/26 06:11:13;;;;;;;69.18;26.50;;;;;;;0.43;100.00;66827.41;5033958;28;20037;-86
2022/02/26 06:13:38;;;;;;;130.77;46.63;;;;;;;0.50;100.00;66840.53;5043537;28;20393;-87
2022/02/26 06:16:05;;;;;;;136.65;51.33;;;;;;;0.44;100.00;66831.72;5043327;28;20049;-86
2022/02/26 06:18:30;;;;;;;124.20;49.63;;;;;;;0.40;100.00;66824.03;5048326;28;20047;-87
2022/02/26 06:20:56;;;;;;;86.88;31.52;;;;;;;0.40;100.00;66826.66;5041599;28;20033;-86
2022/02/26 06:23:21;;;;;;;94.53;33.42;;;;;;;;;;5048482;28;20048;-86
2022/02/26 06:25:46;;;;;;;144.93;53.65;;;;;;;0.42;100.00;66831.53;5042474;28;20494;-85
2022/02/26 06:28:12;;;;;;;235.38;64.85;;;;;;;0.44;100.00;66831.16;5061044;28;20041;-87
2022/02/26 06:30:38;;;;;;;232.95;51.72;;;;;;;0.35;100.00;66829.44;5041370;28;20128;-86
2022/02/26 06:33:03;;;;;;;212.85;63.10;;;;;;;0.37;100.00;66820.66;5037836;28;20075;-87
2022/02/26 06:35:28;;;;;;;183.73;63.42;;;;;;;0.35;100.00;66823.66;5049819;28;20052;-88
2022/02/26 06:37:54;;;;;;;151.63;46.97;;;;;;;0.26;100.00;66810.91;5046455;28;20450;-87
2022/02/26 06:40:19;;;;;;;325.25;67.97;;;;;;;0.30;100.00;66815.41;5045536;28;20166;-87
2022/02/26 06:42:45;;;;;;;169.50;44.35;;;;;;;0.29;100.00;66811.66;5035429;28;20033;-87
2022/02/26 06:45:10;;;;;;;177.45;46.60;;;;;;;0.27;100.00;66814.66;5038592;28;20039;-87
2022/02/26 06:47:36;;;;;;;148.40;46.75;;;;;;;0.23;100.00;66805.47;5048197;28;20041;-87
2022/02/26 06:50:02;;;;;;;169.98;56.75;;;;;;;0.16;100.00;66797.59;5048571;28;20036;-86
2022/02/26 06:52:28;;;;;;;91.97;36.08;;;;;;;0.08;100.00;66791.78;5046829;28;20057;-87
2022/02/26 06:54:53;;;;;;;112.95;35.80;;;;;;;0.03;100.00;66793.44;5033179;28;20124;-87
2022/02/26 06:57:19;;;;;;;116.28;37.08;;;;;;;0.05;100.00;66788.41;5045217;28;20148;-87
2022/02/26 06:59:44;;;;;;;242.63;61.30;;;;;;;0.11;100.00;66797.78;5050980;28;20041;-88
2022/02/26 07:02:09;;;;;;;172.27;52.33;;;;;;;0.05;100.00;66787.84;5053050;28;20089;-87
2022/02/26 07:04:35;;;;;;;148.65;44.88;;;;;;;0.00;100.00;66780.19;5065341;28;20485;-87
2022/02/26 07:07:00;;;;;;;152.35;46.35;;;;;;;0.05;100.00;66785.78;5037083;28;20048;-87
2022/02/26 07:09:27;;;;;;;110.50;36.33;;;;;;;-0.01;100.00;66787.47;5040800;28;20055;-87
2022/02/26 07:11:52;;;;;;;121.72;45.95;;;;;;;-0.01;100.00;66781.66;5055981;28;20041;-88
2022/02/26 07:14:18;;;;;;;331.33;83.13;;;;;;;0.12;100.00;66793.69;5075051;28;20413;-86
2022/02/26 07:16:43;;;;;;;183.10;65.53;;;;;;;;;;5056568;28;20076;-87
2022/02/26 07:19:09;;;;;;;310.25;74.82;;;;;;;0.18;100.00;66805.09;5039815;28;20048;-87
2022/02/26 07:21:35;;;;;;;305.90;80.43;;;;;;;0.26;100.00;66810.91;5073585;28;20045;-86
2022/02/26 07:24:01;;;;;;;216.35;57.85;;;;;;;0.16;100.00;66800.78;5034780;28;20043;-86
2022/02/26 07:26:29;;;;;;;316.30;80.93;;;;;;;0.21;100.00;66803.78;5054287;28;20049;-87
2022/02/26 07:28:55;;;;;;;390.83;102.10;;;;;;;0.31;100.00;66813.91;5047229;28;20043;-88
2022/02/26 07:31:20;;;;;;;234.23;81.70;;;;;;;0.31;100.00;66809.22;5046395;28;20041;-87
2022/02/26 07:33:47;;;;;;;256.23;80.32;;;;;;;0.26;100.00;66808.88;5031416;28;20047;-86
2022/02/26 07:36:12;;;;;;;257.38;69.97;;;;;;;;;;5037489;28;20045;-87
2022/02/26 07:38:40;;;;;;;264.30;79.15;;;;;;;0.28;100.00;66811.09;5035437;28;20049;-88
2022/02/26 07:41:07;;;;;;;255.10;76.10;;;;;;;0.26;100.00;66810.91;5043761;28;20425;-86
2022/02/26 07:43:34;;;;;;;197.20;54.95;;;;;;;0.18;100.00;66805.09;5037792;28;20519;-88
2022/02/26 07:46:00;;;;;;;275.60;88.60;;;;;;;0.31;100.00;66816.53;5045804;28;20053;-86
2022/02/26 07:48:25;;;;;;;286.80;76.30;;;;;;;0.30;100.00;66818.03;5051294;28;20048;-87
2022/02/26 07:50:53;;;;;;;157.93;47.60;;;;;;;0.20;100.00;66802.09;5054853;28;20086;-87
2022/02/26 07:53:18;;;;;;;235.23;70.95;;;;;;;0.28;100.00;66813.72;5037269;28;20513;-88
2022/02/26 07:55:44;;;;;;;192.20;61.70;;;;;;;0.21;100.00;66808.47;5039708;28;20053;-87
2022/02/26 07:58:11;;;;;;;253.68;86.47;;;;;;;0.34;100.00;66819.91;5042544;28;20111;-87
2022/02/26 08:00:38;;;;;;;333.92;111.25;;;;;;;0.37;100.00;66825.91;5050667;28;20136;-88
2022/02/26 08:03:05;;;;;;;190.75;85.72;;;;;;;;;;5055845;28;20048;-87
2022/02/26 08:05:31;;;;;;;329.67;91.50;;;;;;;0.35;100.00;66821.03;5039112;28;20106;-85
2022/02/26 08:07:59;;;;;;;383.92;100.13;;;;;;;0.33;100.00;66824.03;5062645;28;20029;-89
2022/02/26 08:10:31;;;;;;;373.40;112.13;;;;;;;0.39;100.00;66825.53;5053365;28;20438;-90
2022/02/26 08:12:57;;;;;;;310.83;78.25;;;;;;;0.37;100.00;66825.91;5049816;28;20065;-88
2022/02/26 08:15:27;;;;;;;294.42;108.07;;;;;;;0.41;100.00;66825.16;5046385;28;20100;-90
2022/02/26 08:17:52;;;;;;;458.38;100.75;;;;;;;0.36;100.00;66825.34;5045962;28;20029;-84
2022/02/26 08:20:19;;;;;;;403.83;86.22;;;;;;;;;;5047699;28;20098;-89
2022/02/26 08:22:45;;;;;;;474.42;96.80;;;;;;;0.30;100.00;66818.59;5040525;28;20069;-87
2022/02/26 08:25:13;;;;;;;493.42;105.30;;;;;;;0.36;100.00;66822.16;5055645;28;20438;-87
2022/02/26 08:27:44;;;;;;;461.83;89.78;;;;;;;0.41;100.00;66830.97;5034944;28;20391;-85
2022/02/26 08:30:12;;;;;;;358.42;99.05;;;;;;;0.52;100.00;66840.16;5039653;28;20049;-87
2022/02/26 08:32:43;;;;;;;486.60;104.20;;;;;;;;;;5052359;28;20057;-89
2022/02/26 08:35:09;;;;;;;295.40;82.80;;;;;;;0.50;100.00;66839.97;5068253;28;20405;-85
2022/02/26 08:37:36;;;;;;;410.52;84.18;;;;;;;0.54;100.00;66845.00;5055599;28;20056;-85
2022/02/26 08:40:04;;;;;;;404.40;97.35;;;;;;;0.56;100.00;66842.03;5043143;28;20060;-89
2022/02/26 08:42:29;;;;;;;401.73;96.30;;;;;;;;;;5070966;28;20092;-88
2022/02/26 08:44:54;;;;;;;432.02;122.63;;;;;;;0.79;100.00;66866.78;5053490;28;20382;-89
2022/02/26 08:47:21;;;;;;;267.65;73.57;;;;;;;0.76;100.00;66866.59;5071581;28;20052;-87
2022/02/26 08:49:46;;;;;;;368.15;105.43;;;;;;;;;;5056708;28;20041;-85
2022/02/26 08:52:12;;;;;;;426.35;91.68;;;;;;;0.81;100.00;66871.66;5049113;28;20541;-85
2022/02/26 08:54:38;;;;;;;313.40;103.72;;;;;;;0.90;100.00;66882.34;5065115;28;20402;-89
2022/02/26 08:57:04;;;;;;;479.52;106.65;;;;;;;1.09;100.00;66905.78;5049163;28;20432;-87
2022/02/26 08:59:30;;;;;;;431.27;102.63;;;;;;;;;;5079475;28;20062;-86
2022/02/26 09:01:56;;;;;;;425.73;116.43;;;;;;;1.18;100.00;66910.13;5071227;28;20098;-88
2022/02/26 09:04:28;;;;;;;458.00;98.30;;;;;;;1.19;100.00;66915.91;5048421;28;20049;-85
2022/02/26 09:06:53;;;;;;;453.88;89.20;;;;;;;1.06;100.00;66899.78;5032023;28;20044;-92
2022/02/26 09:09:20;;;;;;;357.98;86.15;;;;;;;1.16;100.00;66907.31;5056507;28;20049;-86
2022/02/26 09:11:49;;;;;;;368.63;88.38;;;;;;;1.22;100.00;66914.63;5035491;28;20048;-88
2022/02/26 09:14:16;;;;;;;164.73;61.05;;;;;;;1.19;100.00;66915.91;5042628;28;20068;-86
2022/02/26 09:16:41;;;;;;;177.38;56.47;;;;;;;1.25;100.00;66918.00;5048197;28;20508;-87
2022/02/26 09:19:07;;;;;;;238.52;79.50;;;;;;;1.38;100.00;66932.06;5027466;28;20126;-90
2022/02/26 09:21:32;;;;;;;256.95;95.82;;;;;;;1.43;100.00;66940.31;5054671;28;20076;-89
2022/02/26 09:23:58;;;;;;;204.82;79.47;;;;;;;1.58;100.00;66959.25;5035586;28;20045;-88
2022/02/26 09:26:24;;;;;;;235.85;78.00;;;;;;;1.63;100.00;66959.09;5054711;28;20037;-87
2022/02/26 09:28:50;;;;;;;297.38;76.97;;;;;;;1.62;100.00;66963.78;5023336;28;20049;-88
2022/02/26 09:31:17;;;;;;;215.88;98.45;;;;;;;1.73;100.00;66970.34;5034082;28;20127;-86
2022/02/26 09:33:43;;;;;;;226.93;109.15;;;;;;;1.82;100.00;66980.50;5037673;28;20049;-88
2022/02/26 09:36:09;;;;;;;255.23;94.80;;;;;;;1.76;100.00;66976.34;5051902;28;20075;-89
2022/02/26 09:38:41;;;;;;;235.70;90.93;;;;;;;1.68;100.00;66964.72;5040619;28;20037;-86
2022/02/26 09:41:08;;;;;;;195.82;72.75;;;;;;;1.66;100.00;66962.47;5057016;28;20042;-88
2022/02/26 09:43:34;;;;;;;192.15;67.20;;;;;;;1.54;100.00;66949.50;5046855;28;20045;-89
2022/02/26 09:46:00;;;;;;;170.13;68.78;;;;;;;1.71;100.00;66968.09;5044020;28;20037;-85
2022/02/26 09:48:27;;;;;;;164.30;59.70;;;;;;;1.76;100.00;66976.91;5046659;28;20478;-88
2022/02/26 09:50:53;;;;;;;172.60;62.90;;;;;;;1.91;100.00;66990.63;5070293;28;20041;-86
2022/02/26 09:53:19;;;;;;;184.00;74.50;;;;;;;1.92;100.00;66991.75;5044768;28;20043;-86
2022/02/26 09:55:46;;;;;;;215.55;74.97;;;;;;;2.01;100.00;67007.13;5042158;28;20059;-89
2022/02/26 09:58:16;;;;;;;182.20;72.13;;;;;;;2.15;100.00;67017.09;5049811;28;20372;-87
2022/02/26 10:00:42;;;;;;;212.73;79.53;;;;;;;;;;5043058;28;20051;-87
2022/02/26 10:03:23;;;;;;;195.20;69.93;;;;;;;;;;5046876;28;20489;-85
2022/02/26 10:06:03;;;;;;;216.80;77.30;;;;;;;;;;5056574;28;20079;-86
2022/02/26 10:08:55;;;;;;;179.43;69.47;;;;;;;2.46;100.00;67054.06;5074617;28;21543;-90
2022/02/26 10:11:31;;;;;;;193.93;74.72;;;;;;;;;;5039362;28;20037;-86
2022/02/26 10:14:05;;;;;;;159.70;59.22;;;;;;;2.45;100.00;67055.59;5036365;28;20056;-87
2022/02/26 10:16:49;;;;;;;179.35;71.78;;;;;;;2.58;100.00;67067.03;5044154;28;20057;-87
2022/02/26 10:19:32;;;;;;;170.13;61.70;;;;;;;2.65;100.00;67072.31;5049544;28;20041;-84
2022/02/26 10:22:08;;;;;;;174.55;67.25;;;;;;;;;;5050648;28;20401;-87
2022/02/26 10:24:36;;;;;;;164.90;62.60;;;;;;;;;;5032462;28;20128;-86
2022/02/26 10:27:06;;;;;;;150.53;61.63;;;;;;;;;;5035215;28;20434;-86
2022/02/26 10:29:37;;;;;;;144.98;62.33;;;;;;;2.82;100.00;67092.97;5044771;28;20433;-86
2022/02/26 10:32:04;;;;;;;154.13;57.30;;;;;;;2.86;100.00;67094.84;5043838;28;20037;-88
2022/02/26 10:34:34;;;;;;;142.38;48.65;;;;;;;;;;5070041;28;20379;-86
2022/02/26 10:37:11;;;;;;;131.20;49.38;;;;;;;2.79;100.00;67081.69;5050608;28;20439;-86
2022/02/26 10:39:40;;;;;;;137.27;51.75;;;;;;;2.94;100.00;67103.88;5046113;28;20132;-85
2022/02/26 10:42:07;;;;;;;136.18;54.55;;;;;;;2.99;100.00;67112.13;5043878;28;20413;-87
2022/02/26 10:44:36;;;;;;;132.50;49.55;;;;;;;2.86;100.00;67095.41;5040584;28;20045;-87
2022/02/26 10:47:13;;;;;;;137.45;59.97;;;;;;;2.91;100.00;67101.06;5046764;28;20045;-86
2022/02/26 10:49:41;;;;;;;138.65;47.50;;;;;;;2.90;100.00;67101.97;5036717;28;20047;-88
2022/02/26 10:52:08;;;;;;;105.32;37.58;;;;;;;;;;5071924;28;20053;-87
2022/02/26 10:54:33;;;;;;;113.38;38.60;;;;;;;2.91;100.00;67106.31;5038946;28;20045;-88
2022/02/26 10:57:03;;;;;;;105.28;36.25;;;;;;;3.01;100.00;67111.19;5069320;28;20315;-88
2022/02/26 10:59:28;;;;;;;112.00;42.00;;;;;;;3.13;100.00;67127.34;5052680;28;20045;-86
2022/02/26 11:02:02;;;;;;;100.57;46.33;;;;;;;3.30;100.00;67143.31;5037616;28;20174;-89
2022/02/26 11:04:28;;;;;;;98.88;39.22;;;;;;;;;;5043519;28;20402;-90
2022/02/26 11:06:53;;;;;;;105.43;45.63;;;;;;;;;;5041517;28;20061;-88
2022/02/26 11:09:22;;;;;;;93.40;44.13;;;;;;;3.49;100.00;67164.19;5027926;28;20115;-90
2022/02/26 11:11:50;;;;;;;90.82;40.40;;;;;;;3.61;100.00;67177.72;5053709;28;20037;-89
2022/02/26 11:14:18;;;;;;;67.82;33.53;;;;;;;;;;5058070;28;20045;-89
2022/02/26 11:16:48;;;;;;;65.72;32.00;;;;;;;3.49;100.00;67169.47;5050500;28;20055;-87
2022/02/26 11:19:14;;;;;;;75.10;36.35;;;;;;;3.61;100.00;67178.28;5028793;28;20045;-90
2022/02/26 11:21:46;;;;;;;78.25;40.28;;;;;;;3.66;100.00;67186.00;5025227;28;20091;-85
2022/02/26 11:24:13;;;;;;;90.78;46.38;;;;;;;3.84;100.00;67205.75;5035225;28;20107;-88
2022/02/26 11:26:40;;;;;;;84.43;41.28;;;;;;;3.64;100.00;67180.56;5036003;28;20037;-90
2022/02/26 11:29:10;;;;;;;93.65;42.97;;;;;;;3.77;100.00;67189.94;5036762;28;20138;-87
2022/02/26 11:31:41;;;;;;;97.72;42.42;;;;;;;4.13;100.00;67237.91;5038029;28;20077;-86